Loma Linda, CA (92350)

8:44 PM PDT on August 26, 2016 (GMT -0700)
Barton Rd. and Waterman Ave. (L&L Environmental, Inc.) | | Change Station

Elev 1037 ft 34.05 °N, 117.28 °W | Updated 10 minutes ago

Clear
Clear
69.4 °F
Feels Like 69.4 °F
N
4.7
Wind Variable Wind from SW

Today
High -- | Low -- °F
--% Chance of Precip.
Yesterday
High -- | Low -- °F
Precip. -- in
Pressure 29.93 in
Visibility 7.0 miles
Clouds Clear
Dew Point 57 °F
Humidity 65%
Rainfall 0.00 in
Snow Depth Not available.
6:18 AM 7:21 PM
Waning Crescent, 28% visible
METAR KSBD 270255Z 25011KT 07SM SKC 23/12 A2993
Pressure 29.93 in
Visibility 7.0 miles
Clouds Clear
Dew Point 57 °F
Humidity 65%
Rainfall 0.00 in
Snow Depth Not available.
6:18 AM 7:21 PM
Waning Crescent, 28% visible
METAR KSBD 270255Z 25011KT 07SM SKC 23/12 A2993

10-Day Weather Forecast

Almanac

Astronomy

Aug. 26, 2016 Rise Set
Actual Time
Civil Twilight
Nautical Twilight
Astronomical Twilight
Moon
Length of Visible Light
Length of Day
Tomorrow will be .
, % of the Moon is Illuminated

Today's Extremes

State Highs State Lows

Community

WunderPhotos

Upload Photos

1,935,290 photos uploaded!

WunderBlog® & News

Nearby

Air Quality

  Air Quality AQ Index Pollutant
Not available.

Snow Depth

Station Depth Elevation

Earthquake Activity

City Distance Mag. Time & Date
Minimum magnitude displayed is 2.5.

Coastal Water Temperatures

Place Temperature

Stations

Nearby Weather Stations

Station Location Temp. Windchill Dew Point Humidity Wind Precip. Elev Updated Type
                   

Watches & Warnings

There are currently no watches in effect.